Time;durP1;ratioP1;P1;durP2;ratioP2;P2;SDS_P1;SDS_P2;PMS_P1;PMS_P2;Temp;Humidity;BMP_temperature;BMP_pressure;BME280_temperature;BME280_humidity;BME280_pressure;Samples;Min_cycle;Max_cycle;Signal;HPM_P1;HPM_P2
2021/03/01 00:01:08;;;;;;;17.35;9.18;;;5.00;70.30;;;;;;5012331;28;20053;-81
2021/03/01 00:03:34;;;;;;;25.40;12.82;;;5.00;70.30;;;;;;5012034;28;20029;-81
2021/03/01 00:06:01;;;;;;;20.98;10.73;;;5.00;70.30;;;;;;4994605;28;20447;-82
2021/03/01 00:08:29;;;;;;;24.58;11.90;;;5.00;70.40;;;;;;5012059;28;20030;-82
2021/03/01 00:10:55;;;;;;;25.00;12.80;;;5.00;70.40;;;;;;5012307;28;20034;-81
2021/03/01 00:13:21;;;;;;;21.73;11.52;;;5.10;70.40;;;;;;5012231;28;20057;-82
2021/03/01 00:15:48;;;;;;;16.95;9.52;;;5.10;70.40;;;;;;5012089;28;20465;-83
2021/03/01 00:18:14;;;;;;;23.55;11.80;;;5.10;70.40;;;;;;4994587;28;20121;-80
2021/03/01 00:20:40;;;;;;;22.70;11.45;;;5.10;70.60;;;;;;4994441;28;20113;-83
2021/03/01 00:23:08;;;;;;;19.88;10.20;;;5.10;70.80;;;;;;5012406;28;20030;-81
2021/03/01 00:25:34;;;;;;;18.02;9.30;;;5.20;70.90;;;;;;4995746;28;20038;-81
2021/03/01 00:28:00;;;;;;;21.37;10.37;;;5.30;70.80;;;;;;5013051;28;20434;-81
2021/03/01 00:30:25;;;;;;;18.13;9.65;;;5.30;70.70;;;;;;5012964;28;20029;-80
2021/03/01 00:32:51;;;;;;;23.25;11.93;;;5.40;70.70;;;;;;5012962;28;20396;-81
2021/03/01 00:35:17;;;;;;;27.30;12.15;;;5.40;70.60;;;;;;5013110;28;20408;-81
2021/03/01 00:37:42;;;;;;;25.15;10.98;;;5.40;70.50;;;;;;5013940;28;20066;-81
2021/03/01 00:40:09;;;;;;;23.83;11.93;;;5.50;70.50;;;;;;5016536;28;20040;-81
2021/03/01 00:42:34;;;;;;;26.50;12.20;;;5.50;71.00;;;;;;5016504;28;20022;-81
2021/03/01 00:45:01;;;;;;;24.65;12.07;;;5.60;70.30;;;;;;5016783;28;20034;-81
2021/03/01 00:47:26;;;;;;;22.85;11.38;;;5.60;70.30;;;;;;4999338;28;20029;-81
2021/03/01 00:49:52;;;;;;;21.27;9.32;;;5.60;70.10;;;;;;5015042;28;20030;-84
2021/03/01 00:52:18;;;;;;;21.13;10.38;;;5.70;70.00;;;;;;5015702;28;20032;-81
2021/03/01 00:54:43;;;;;;;19.70;9.77;;;5.70;70.10;;;;;;5015474;28;20041;-81
2021/03/01 00:57:09;;;;;;;13.45;8.02;;;5.70;70.00;;;;;;5015270;28;20018;-81
2021/03/01 00:59:35;;;;;;;12.93;7.43;;;5.80;70.00;;;;;;5015358;28;20510;-82
2021/03/01 01:02:00;;;;;;;12.50;7.78;;;5.80;69.90;;;;;;5015345;28;20452;-81
2021/03/01 01:04:26;;;;;;;11.38;7.65;;;5.80;69.80;;;;;;5015379;28;20371;-81
2021/03/01 01:06:52;;;;;;;9.93;6.53;;;5.80;69.70;;;;;;5015316;28;20064;-83
2021/03/01 01:09:18;;;;;;;10.70;7.32;;;5.90;69.80;;;;;;5014180;28;20036;-81
2021/03/01 01:11:44;;;;;;;10.85;7.32;;;5.90;69.70;;;;;;5015031;28;20030;-82
2021/03/01 01:14:10;;;;;;;12.40;7.90;;;5.90;69.60;;;;;;5015095;28;20105;-81
2021/03/01 01:16:36;;;;;;;12.40;8.30;;;6.00;69.60;;;;;;5014950;28;20571;-81
2021/03/01 01:19:03;;;;;;;13.18;9.07;;;6.00;69.50;;;;;;5015198;28;20068;-81
2021/03/01 01:21:29;;;;;;;15.10;9.38;;;6.00;69.50;;;;;;5014996;28;20122;-81
2021/03/01 01:23:54;;;;;;;14.82;9.63;;;6.00;69.50;;;;;;5015391;28;20512;-82
2021/03/01 01:26:20;;;;;;;15.15;9.75;;;6.00;69.40;;;;;;5015049;28;20022;-81
2021/03/01 01:28:46;;;;;;;18.45;10.63;;;6.00;69.50;;;;;;5013532;28;20137;-82
2021/03/01 01:31:11;;;;;;;18.25;11.18;;;6.00;69.30;;;;;;5014877;28;20026;-81
2021/03/01 01:33:37;;;;;;;18.88;11.75;;;6.00;69.10;;;;;;5014759;28;20029;-81
2021/03/01 01:36:03;;;;;;;18.88;11.90;;;6.00;69.10;;;;;;5014566;28;20057;-82
2021/03/01 01:38:29;;;;;;;19.55;12.88;;;6.00;69.10;;;;;;5014475;28;20392;-81
2021/03/01 01:40:54;;;;;;;17.70;12.45;;;6.00;69.10;;;;;;5014493;28;20029;-84
2021/03/01 01:43:20;;;;;;;20.10;12.82;;;6.00;69.10;;;;;;5014499;28;20033;-80
2021/03/01 01:45:46;;;;;;;18.88;12.75;;;6.10;69.20;;;;;;5015042;28;20026;-82
2021/03/01 01:48:12;;;;;;;19.30;13.32;;;6.10;69.10;;;;;;5014467;28;20032;-81
2021/03/01 01:50:38;;;;;;;18.58;12.77;;;6.10;69.10;;;;;;5014546;28;20030;-81
2021/03/01 01:53:03;;;;;;;16.05;10.75;;;6.10;69.00;;;;;;5014239;28;20049;-83
2021/03/01 01:55:31;;;;;;;16.33;11.15;;;6.20;69.00;;;;;;5014550;28;20042;-81
2021/03/01 01:57:57;;;;;;;14.82;10.27;;;6.10;69.00;;;;;;5013918;28;20032;-82
2021/03/01 02:03:23;;;;;;;12.55;9.05;;;6.20;69.10;;;;;;5012650;28;20021;-81
2021/03/01 02:05:51;;;;;;;18.02;10.75;;;6.20;69.00;;;;;;5013955;28;20127;-81
2021/03/01 02:08:27;;;;;;;19.33;10.77;;;6.20;69.00;;;;;;5013577;28;20104;-81
2021/03/01 02:11:02;;;;;;;16.42;8.95;;;6.20;68.90;;;;;;5013891;28;20467;-81
2021/03/01 02:13:36;;;;;;;13.55;9.18;;;6.20;68.90;;;;;;5012865;28;20022;-80
2021/03/01 02:16:14;;;;;;;11.77;8.13;;;6.30;68.90;;;;;;5014993;28;20053;-81
2021/03/01 02:18:39;;;;;;;13.52;7.18;;;6.30;68.90;;;;;;5015054;28;20378;-80
2021/03/01 02:21:10;;;;;;;12.25;7.10;;;6.30;68.80;;;;;;5015043;28;20026;-80
2021/03/01 02:23:37;;;;;;;10.68;7.47;;;6.30;68.70;;;;;;5015242;28;20022;-79
2021/03/01 02:26:07;;;;;;;10.98;7.00;;;6.30;68.60;;;;;;5015324;28;20022;-80
2021/03/01 02:28:41;;;;;;;12.68;7.47;;;6.30;68.50;;;;;;5015005;28;20486;-80
2021/03/01 02:31:09;;;;;;;10.20;7.05;;;6.30;68.50;;;;;;5014743;28;20034;-80
2021/03/01 02:33:41;;;;;;;11.43;7.18;;;6.30;68.50;;;;;;5014939;28;20022;-80
2021/03/01 02:36:17;;;;;;;10.65;6.47;;;6.30;69.10;;;;;;5014513;28;20419;-80
2021/03/01 02:38:43;;;;;;;10.38;6.50;;;6.30;69.20;;;;;;5014420;28;20389;-81
2021/03/01 02:41:11;;;;;;;12.30;6.47;;;6.30;68.50;;;;;;5014646;28;20096;-81
2021/03/01 02:43:40;;;;;;;11.27;6.40;;;6.30;68.50;;;;;;5014657;28;20026;-81
2021/03/01 02:46:08;;;;;;;8.68;6.07;;;6.30;68.50;;;;;;5014479;28;20033;-80
2021/03/01 02:48:36;;;;;;;8.05;6.50;;;6.30;68.40;;;;;;5014498;28;20025;-81
2021/03/01 02:51:03;;;;;;;9.27;6.85;;;6.40;68.50;;;;;;5014767;28;20036;-80
2021/03/01 02:53:29;;;;;;;9.80;6.95;;;6.40;68.30;;;;;;5014279;28;20038;-81
2021/03/01 02:55:56;;;;;;;11.82;7.53;;;6.30;68.30;;;;;;5014261;28;20421;-82
2021/03/01 02:58:24;;;;;;;12.77;7.82;;;6.30;68.40;;;;;;5014207;28;20168;-81
2021/03/01 03:00:50;;;;;;;12.98;8.13;;;6.40;68.40;;;;;;5013447;28;20040;-80
2021/03/01 03:03:16;;;;;;;11.70;8.02;;;6.40;68.40;;;;;;5014241;28;20026;-81
2021/03/01 03:05:44;;;;;;;16.23;9.40;;;6.40;68.30;;;;;;5014271;28;20100;-81
2021/03/01 03:08:12;;;;;;;16.73;8.80;;;6.40;68.30;;;;;;5013939;28;20108;-80
2021/03/01 03:10:39;;;;;;;14.00;8.98;;;6.30;68.20;;;;;;5014136;28;20036;-79
2021/03/01 03:13:06;;;;;;;15.18;10.05;;;6.30;68.20;;;;;;5014375;28;20029;-80
2021/03/01 03:15:33;;;;;;;14.93;9.80;;;6.30;68.30;;;;;;5014246;28;20034;-80
2021/03/01 03:18:01;;;;;;;14.30;9.65;;;6.30;68.50;;;;;;5014225;28;20041;-81
2021/03/01 03:20:27;;;;;;;16.95;9.77;;;6.30;68.50;;;;;;5014135;28;20037;-80
2021/03/01 03:22:53;;;;;;;15.98;9.20;;;6.30;68.50;;;;;;5014948;28;20029;-80
2021/03/01 03:25:19;;;;;;;15.55;9.10;;;6.20;68.40;;;;;;4998117;28;20494;-79
2021/03/01 03:27:45;;;;;;;17.15;9.98;;;6.20;68.50;;;;;;5015226;28;20033;-80
2021/03/01 03:30:16;;;;;;;15.23;9.77;;;6.20;68.60;;;;;;5014257;28;20030;-80
2021/03/01 03:32:42;;;;;;;16.83;9.82;;;6.30;68.60;;;;;;5014243;28;20026;-80
2021/03/01 03:35:11;;;;;;;15.15;9.15;;;6.30;68.60;;;;;;5014019;28;20030;-81
2021/03/01 03:38:07;;;;;;;13.38;8.63;;;6.30;68.60;;;;;;5014242;28;20037;-80
2021/03/01 03:40:34;;;;;;;13.95;8.98;;;6.30;68.60;;;;;;5013830;28;20079;-80
2021/03/01 03:43:01;;;;;;;13.10;8.85;;;6.30;68.40;;;;;;5013859;28;20109;-81
2021/03/01 03:45:27;;;;;;;14.60;9.05;;;6.30;68.40;;;;;;5012443;28;20114;-80
2021/03/01 03:47:56;;;;;;;15.07;9.18;;;6.30;68.40;;;;;;5013870;28;20057;-80
2021/03/01 03:50:24;;;;;;;13.80;9.23;;;6.30;68.90;;;;;;4996016;28;20518;-79
2021/03/01 03:52:56;;;;;;;13.90;9.15;;;6.40;68.40;;;;;;5014038;28;20472;-79
2021/03/01 03:55:23;;;;;;;13.68;9.23;;;6.30;68.30;;;;;;4996334;28;20621;-79
2021/03/01 03:58:10;;;;;;;14.70;8.55;;;6.30;68.30;;;;;;5014094;28;20108;-80
2021/03/01 04:00:38;;;;;;;14.55;9.05;;;6.30;68.30;;;;;;5014521;28;20183;-80
2021/03/01 04:03:25;;;;;;;16.58;9.88;;;6.30;68.50;;;;;;5013459;28;20034;-81
2021/03/01 04:05:54;;;;;;;19.27;9.57;;;6.20;68.40;;;;;;5013711;28;20033;-81
2021/03/01 04:08:21;;;;;;;18.42;9.68;;;6.30;68.50;;;;;;5013614;28;20030;-81
2021/03/01 04:10:52;;;;;;;19.13;10.50;;;6.30;68.50;;;;;;5013590;28;20030;-80
2021/03/01 04:13:22;;;;;;;19.92;10.70;;;6.30;68.50;;;;;;5017171;28;20026;-80
2021/03/01 04:15:48;;;;;;;20.58;11.18;;;6.30;68.50;;;;;;4999890;28;20438;-80
2021/03/01 04:18:28;;;;;;;17.85;11.02;;;6.30;68.50;;;;;;4999848;28;20022;-80
2021/03/01 04:20:56;;;;;;;16.33;10.43;;;6.30;68.70;;;;;;5017002;28;20033;-80
2021/03/01 04:23:22;;;;;;;19.83;10.25;;;6.30;68.60;;;;;;5015679;28;20084;-81
2021/03/01 04:25:49;;;;;;;19.63;10.90;;;6.30;68.60;;;;;;4997879;28;20026;-80
2021/03/01 04:28:17;;;;;;;20.83;11.50;;;6.30;68.50;;;;;;4997182;28;20428;-80
2021/03/01 04:30:43;;;;;;;21.00;11.18;;;6.30;68.60;;;;;;4997997;28;20031;-80
2021/03/01 04:33:10;;;;;;;25.77;12.73;;;6.30;68.70;;;;;;4997538;28;20022;-80
2021/03/01 04:35:38;;;;;;;20.45;11.73;;;6.30;68.60;;;;;;4997703;28;20077;-80
2021/03/01 04:38:03;;;;;;;20.42;10.80;;;6.30;68.60;;;;;;4996940;28;20030;-81
2021/03/01 04:40:29;;;;;;;22.55;12.40;;;6.30;68.50;;;;;;4997668;28;20105;-80
2021/03/01 04:42:56;;;;;;;23.08;11.50;;;6.30;68.50;;;;;;5004744;28;20038;-81
2021/03/01 04:45:23;;;;;;;22.75;12.10;;;6.30;69.10;;;;;;5016132;28;20030;-81
2021/03/01 04:47:49;;;;;;;20.95;11.93;;;6.30;68.60;;;;;;5015869;28;20460;-81
2021/03/01 04:50:17;;;;;;;21.92;11.40;;;6.30;68.50;;;;;;5016086;28;20030;-81
2021/03/01 04:52:44;;;;;;;21.77;12.27;;;6.30;68.50;;;;;;5015739;28;20033;-80
2021/03/01 04:55:11;;;;;;;21.10;11.45;;;6.30;68.50;;;;;;4997783;28;20042;-80
2021/03/01 04:57:38;;;;;;;28.40;13.80;;;6.30;68.50;;;;;;5015610;28;20029;-80
2021/03/01 05:00:06;;;;;;;25.80;12.93;;;6.40;68.50;;;;;;5015573;28;20021;-81
2021/03/01 05:02:32;;;;;;;26.08;13.27;;;6.40;68.50;;;;;;5015016;28;20026;-80
2021/03/01 05:05:00;;;;;;;25.25;13.82;;;6.40;68.40;;;;;;5015327;28;20084;-82
2021/03/01 05:07:28;;;;;;;23.27;12.82;;;6.40;68.50;;;;;;5013106;28;20073;-81
2021/03/01 05:09:54;;;;;;;29.10;13.38;;;6.40;68.60;;;;;;5015532;28;20041;-79
2021/03/01 05:12:20;;;;;;;29.50;13.68;;;6.40;68.50;;;;;;5015009;28;20439;-80
2021/03/01 05:14:46;;;;;;;27.65;12.30;;;6.40;68.50;;;;;;5015038;28;20025;-80
2021/03/01 05:17:12;;;;;;;26.27;12.63;;;6.40;68.40;;;;;;4997597;28;20026;-81
2021/03/01 05:19:37;;;;;;;27.38;13.00;;;6.40;68.30;;;;;;5015278;28;20404;-85
2021/03/01 05:22:03;;;;;;;26.83;12.63;;;6.50;68.40;;;;;;5015110;28;20058;-80
2021/03/01 05:24:29;;;;;;;27.42;13.02;;;6.50;68.40;;;;;;5014342;28;20026;-81
2021/03/01 05:26:55;;;;;;;28.42;13.27;;;6.50;68.30;;;;;;5014704;28;20152;-81
2021/03/01 05:29:21;;;;;;;23.60;12.20;;;6.50;68.30;;;;;;5014897;28;20037;-81
2021/03/01 05:31:47;;;;;;;22.13;12.18;;;6.50;68.30;;;;;;5014989;28;20395;-81
2021/03/01 05:34:13;;;;;;;26.27;13.38;;;6.60;68.30;;;;;;5014662;28;20022;-80
2021/03/01 05:36:38;;;;;;;26.13;13.07;;;6.60;68.20;;;;;;5015033;28;20030;-81
2021/03/01 05:39:05;;;;;;;26.42;13.80;;;6.60;68.20;;;;;;5013228;28;20392;-81
2021/03/01 05:41:32;;;;;;;23.30;11.88;;;6.60;68.20;;;;;;5014587;28;20030;-81
2021/03/01 05:43:58;;;;;;;21.13;10.75;;;6.70;68.30;;;;;;5014167;28;20396;-83
2021/03/01 05:46:24;;;;;;;22.35;12.25;;;6.70;68.20;;;;;;5014333;28;20034;-82
2021/03/01 05:48:52;;;;;;;24.13;12.38;;;6.70;68.10;;;;;;5014602;28;20030;-83
2021/03/01 05:51:23;;;;;;;23.55;11.70;;;6.80;68.10;;;;;;5014408;28;20025;-81
2021/03/01 05:53:54;;;;;;;24.23;12.20;;;6.80;67.90;;;;;;5011866;28;20053;-81
2021/03/01 05:56:20;;;;;;;25.17;13.07;;;6.80;67.80;;;;;;5015137;28;20033;-81
2021/03/01 05:58:46;;;;;;;25.33;12.27;;;6.80;67.70;;;;;;5015391;28;20026;-81
2021/03/01 06:01:12;;;;;;;21.50;10.65;;;6.80;67.70;;;;;;5015278;28;20030;-80
2021/03/01 06:03:38;;;;;;;19.08;10.95;;;6.80;67.60;;;;;;5014923;28;20026;-81
2021/03/01 06:06:05;;;;;;;17.80;10.60;;;6.90;67.60;;;;;;5015130;28;20353;-83
2021/03/01 06:08:31;;;;;;;18.45;10.60;;;6.90;67.50;;;;;;5014686;28;20038;-81
2021/03/01 06:10:57;;;;;;;19.85;10.95;;;6.90;67.40;;;;;;5014295;28;20044;-79
2021/03/01 06:13:24;;;;;;;21.00;11.82;;;6.90;67.40;;;;;;4996901;28;20495;-80
2021/03/01 06:15:55;;;;;;;19.45;10.73;;;6.90;67.40;;;;;;5014800;28;20035;-82
2021/03/01 06:18:22;;;;;;;17.52;10.30;;;6.90;67.20;;;;;;5014265;28;20300;-81
2021/03/01 06:20:48;;;;;;;17.42;10.15;;;7.00;67.20;;;;;;5014558;28;20018;-80
2021/03/01 06:23:32;;;;;;;15.50;9.85;;;7.00;67.10;;;;;;5014516;28;20044;-80
2021/03/01 06:26:18;;;;;;;15.93;9.23;;;7.10;67.00;;;;;;5013983;28;20064;-81
2021/03/01 06:28:46;;;;;;;17.58;9.90;;;7.10;66.80;;;;;;5004388;28;20042;-81
2021/03/01 06:31:32;;;;;;;16.95;10.20;;;7.10;66.80;;;;;;5014828;28;20368;-80
2021/03/01 06:34:24;;;;;;;17.00;9.90;;;7.20;66.80;;;;;;5014138;28;20101;-80
2021/03/01 06:37:15;;;;;;;15.18;9.35;;;7.20;66.80;;;;;;5014534;28;20361;-80
2021/03/01 06:39:45;;;;;;;16.33;9.38;;;7.30;66.60;;;;;;5014988;28;20482;-80
2021/03/01 06:42:19;;;;;;;18.90;9.68;;;7.40;66.50;;;;;;5014543;28;20055;-80
2021/03/01 06:44:46;;;;;;;15.52;9.18;;;7.40;66.30;;;;;;5014636;28;20071;-81
2021/03/01 06:47:12;;;;;;;16.40;9.25;;;7.50;66.20;;;;;;5014659;28;20384;-80
2021/03/01 06:49:40;;;;;;;16.48;9.43;;;7.50;66.10;;;;;;5014422;28;20045;-81
2021/03/01 06:52:07;;;;;;;15.85;9.88;;;7.50;66.10;;;;;;5014286;28;20030;-81
2021/03/01 06:54:33;;;;;;;17.38;9.80;;;7.60;65.80;;;;;;5014606;28;20121;-80
2021/03/01 06:56:58;;;;;;;20.38;10.68;;;7.60;65.70;;;;;;4996563;28;20388;-81
2021/03/01 06:59:24;;;;;;;20.02;10.90;;;7.60;65.70;;;;;;5014042;28;20038;-81
2021/03/01 07:01:52;;;;;;;20.48;10.00;;;7.70;65.60;;;;;;5014569;28;20125;-84
2021/03/01 07:04:29;;;;;;;17.92;9.75;;;7.70;65.30;;;;;;5014520;28;20163;-80
2021/03/01 07:06:56;;;;;;;16.50;9.52;;;7.80;65.30;;;;;;5013902;28;20364;-81
2021/03/01 07:09:24;;;;;;;16.25;9.82;;;7.80;65.00;;;;;;5013276;28;20038;-79
2021/03/01 07:11:50;;;;;;;19.08;10.05;;;7.80;64.90;;;;;;5012693;28;20081;-80
2021/03/01 07:14:19;;;;;;;15.93;9.68;;;7.80;64.80;;;;;;5012662;28;20413;-79
2021/03/01 07:16:49;;;;;;;15.32;9.10;;;7.80;64.80;;;;;;5010374;28;20109;-82
2021/03/01 07:19:20;;;;;;;19.40;10.10;;;7.80;64.80;;;;;;5012577;28;20026;-80
2021/03/01 07:21:49;;;;;;;14.15;8.05;;;7.80;64.60;;;;;;5010173;28;20021;-81
2021/03/01 07:24:26;;;;;;;14.40;7.85;;;7.80;64.40;;;;;;5012035;28;20018;-81
2021/03/01 07:26:54;;;;;;;13.63;7.97;;;7.80;64.30;;;;;;4995022;28;20061;-82
2021/03/01 07:29:22;;;;;;;14.88;9.07;;;7.70;64.20;;;;;;5012308;28;20113;-81
2021/03/01 07:31:56;;;;;;;17.48;9.77;;;7.70;64.30;;;;;;5011999;28;20084;-82
2021/03/01 07:34:23;;;;;;;16.55;10.00;;;7.70;64.50;;;;;;5013004;28;20225;-80
2021/03/01 07:36:51;;;;;;;20.17;10.00;;;7.70;64.50;;;;;;5013285;28;20034;-80
2021/03/01 07:39:17;;;;;;;16.67;9.77;;;7.70;64.60;;;;;;4979565;28;20037;-81
2021/03/01 07:41:44;;;;;;;14.05;8.90;;;7.80;64.40;;;;;;5013460;28;20392;-81
2021/03/01 07:44:10;;;;;;;15.98;8.27;;;7.80;64.30;;;;;;5013477;28;20053;-81
2021/03/01 07:46:45;;;;;;;13.88;8.82;;;7.80;64.00;;;;;;5013111;28;20036;-80
2021/03/01 07:49:34;;;;;;;13.88;8.73;;;7.70;64.00;;;;;;5013255;28;20038;-81
2021/03/01 07:51:59;;;;;;;13.63;8.15;;;7.70;64.10;;;;;;5013265;28;20434;-82
2021/03/01 07:54:55;;;;;;;14.00;8.50;;;7.80;64.30;;;;;;5013179;28;20049;-81
2021/03/01 07:57:22;;;;;;;15.60;8.40;;;7.80;64.10;;;;;;5013409;28;20087;-82
2021/03/01 07:59:48;;;;;;;13.77;8.38;;;7.80;64.10;;;;;;5013430;28;20034;-81
2021/03/01 08:02:20;;;;;;;15.30;7.55;;;7.80;64.10;;;;;;5013627;28;20049;-80
2021/03/01 08:04:45;;;;;;;11.20;7.38;;;7.90;64.10;;;;;;5013277;28;20018;-81
2021/03/01 08:07:11;;;;;;;11.88;8.10;;;7.90;64.10;;;;;;5013163;28;20045;-81
2021/03/01 08:09:48;;;;;;;13.65;7.90;;;8.00;64.00;;;;;;5013384;28;20107;-81
2021/03/01 08:12:29;;;;;;;13.40;8.40;;;8.00;63.90;;;;;;5013355;28;20490;-81
2021/03/01 08:14:56;;;;;;;15.85;8.43;;;8.10;63.80;;;;;;5013114;28;20065;-80
2021/03/01 08:17:47;;;;;;;12.07;8.02;;;8.10;63.60;;;;;;5012782;28;20030;-80
2021/03/01 08:20:16;;;;;;;12.70;8.48;;;8.10;63.30;;;;;;5011389;28;20030;-81
2021/03/01 08:23:10;;;;;;;12.02;7.70;;;8.20;63.30;;;;;;5009292;28;20037;-79
2021/03/01 08:25:46;;;;;;;12.25;7.50;;;8.20;63.00;;;;;;5012262;28;20030;-81
2021/03/01 08:28:17;;;;;;;12.27;7.15;;;8.20;62.90;;;;;;5012045;28;20037;-82
2021/03/01 08:30:44;;;;;;;11.95;7.35;;;8.10;62.90;;;;;;5012187;28;20041;-81
2021/03/01 08:33:10;;;;;;;9.90;7.20;;;8.20;63.00;;;;;;5012156;28;20109;-82
2021/03/01 08:35:38;;;;;;;10.60;6.70;;;8.20;62.90;;;;;;5011972;28;20110;-83
2021/03/01 08:38:05;;;;;;;12.10;6.80;;;8.20;62.90;;;;;;5011780;28;20554;-81
2021/03/01 08:40:31;;;;;;;11.27;7.20;;;8.30;62.70;;;;;;5011426;28;20384;-81
2021/03/01 08:43:02;;;;;;;12.18;7.50;;;8.30;62.60;;;;;;5011273;28;20487;-80
2021/03/01 08:45:30;;;;;;;10.05;6.55;;;8.40;62.40;;;;;;5011892;28;20026;-80
2021/03/01 08:47:58;;;;;;;13.27;7.80;;;8.40;62.10;;;;;;5008865;28;20129;-81
2021/03/01 08:50:35;;;;;;;13.38;7.93;;;8.40;62.00;;;;;;5009719;28;20038;-82
2021/03/01 08:53:00;;;;;;;10.05;7.28;;;8.40;61.90;;;;;;5012361;28;20260;-81
2021/03/01 08:55:27;;;;;;;9.77;7.18;;;8.50;61.90;;;;;;5012218;28;20054;-81
2021/03/01 08:58:03;;;;;;;10.20;6.78;;;8.50;61.80;;;;;;5011819;28;20030;-81
2021/03/01 09:00:30;;;;;;;12.88;7.32;;;8.60;61.60;;;;;;4997638;28;20097;-81
2021/03/01 09:03:18;;;;;;;12.38;7.07;;;8.70;61.60;;;;;;4997562;28;20160;-80
2021/03/01 09:05:49;;;;;;;14.20;8.07;;;8.80;61.20;;;;;;5013129;28;20022;-81
2021/03/01 09:08:23;;;;;;;12.52;8.25;;;8.80;61.00;;;;;;4997447;28;20026;-84
2021/03/01 09:10:49;;;;;;;14.70;7.78;;;8.90;60.70;;;;;;5013757;28;20036;-81
2021/03/01 09:13:18;;;;;;;11.77;7.38;;;8.90;60.60;;;;;;5015038;28;20460;-83
2021/03/01 09:15:44;;;;;;;13.35;7.07;;;8.90;60.50;;;;;;5012902;28;20032;-81
2021/03/01 09:18:11;;;;;;;10.98;7.15;;;9.00;60.30;;;;;;5014978;28;20022;-81
2021/03/01 09:20:43;;;;;;;12.45;7.30;;;9.00;60.20;;;;;;5014984;28;20160;-83
2021/03/01 09:23:09;;;;;;;14.00;7.55;;;9.10;59.90;;;;;;5015208;28;20129;-83
2021/03/01 09:25:35;;;;;;;10.85;6.85;;;9.20;59.80;;;;;;5014702;28;20358;-82
2021/03/01 09:28:02;;;;;;;10.43;6.78;;;9.20;59.50;;;;;;5015147;28;20160;-81
2021/03/01 09:30:28;;;;;;;8.07;6.18;;;9.30;59.40;;;;;;4996991;28;20042;-80
2021/03/01 09:33:06;;;;;;;11.00;7.03;;;9.50;59.30;;;;;;5014865;28;20518;-80
2021/03/01 09:35:34;;;;;;;14.43;7.75;;;9.60;58.80;;;;;;5014197;28;20583;-79
2021/03/01 09:38:02;;;;;;;12.20;6.72;;;9.80;58.70;;;;;;5014509;28;20018;-79
2021/03/01 09:40:29;;;;;;;11.65;6.97;;;10.00;58.20;;;;;;5015118;28;20178;-78
2021/03/01 09:43:05;;;;;;;13.25;7.28;;;10.20;57.90;;;;;;5015767;28;20037;-79
2021/03/01 09:45:34;;;;;;;10.30;6.40;;;10.30;57.30;;;;;;5015336;28;20383;-79
2021/03/01 09:48:04;;;;;;;9.98;6.80;;;10.40;56.80;;;;;;5014643;28;20164;-79
2021/03/01 09:50:30;;;;;;;7.35;5.72;;;10.50;56.50;;;;;;5015643;28;20054;-79
2021/03/01 09:52:57;;;;;;;8.40;5.88;;;10.60;56.20;;;;;;5015907;28;20056;-79
2021/03/01 09:55:24;;;;;;;9.43;5.97;;;10.80;55.90;;;;;;5015894;28;20046;-80
2021/03/01 09:57:50;;;;;;;9.82;6.63;;;10.90;55.40;;;;;;5015800;28;20034;-79
2021/03/01 10:00:31;;;;;;;12.07;8.23;;;11.00;55.10;;;;;;5015421;28;20041;-79
2021/03/01 10:03:02;;;;;;;14.65;8.68;;;11.00;54.80;;;;;;5015292;28;20030;-80
2021/03/01 10:05:30;;;;;;;15.63;9.55;;;11.00;54.80;;;;;;5015416;28;20058;-79
2021/03/01 10:08:04;;;;;;;15.30;8.95;;;11.00;55.00;;;;;;5015110;28;20037;-79
2021/03/01 10:10:41;;;;;;;13.05;9.45;;;11.00;54.80;;;;;;5014786;28;20402;-81
2021/03/01 10:13:08;;;;;;;11.63;7.97;;;11.10;54.70;;;;;;5015249;28;20121;-79
2021/03/01 10:15:44;;;;;;;13.57;8.85;;;11.10;54.60;;;;;;5013646;28;20080;-78
2021/03/01 10:18:12;;;;;;;13.57;8.60;;;11.10;54.00;;;;;;5014746;28;20026;-80
2021/03/01 10:20:52;;;;;;;10.10;7.07;;;11.20;54.10;;;;;;5015141;28;20018;-80
2021/03/01 10:23:31;;;;;;;9.32;6.88;;;11.30;53.80;;;;;;5014946;28;20121;-80
2021/03/01 10:26:19;;;;;;;9.90;7.63;;;11.30;53.60;;;;;;5014297;28;20022;-78
2021/03/01 10:28:50;;;;;;;9.95;7.47;;;11.30;53.50;;;;;;5014807;28;20109;-81
2021/03/01 10:31:17;;;;;;;9.10;6.65;;;11.30;53.60;;;;;;5014296;28;20457;-81
2021/03/01 10:33:52;;;;;;;10.50;7.28;;;11.30;53.50;;;;;;5014792;28;20384;-81
2021/03/01 10:36:18;;;;;;;11.95;8.23;;;11.30;53.30;;;;;;5014743;28;20026;-80
2021/03/01 10:38:50;;;;;;;11.68;7.65;;;11.30;53.60;;;;;;5013992;28;20040;-82
2021/03/01 10:41:20;;;;;;;11.38;7.18;;;11.30;53.60;;;;;;5014777;28;20030;-80
2021/03/01 10:43:56;;;;;;;9.32;7.00;;;11.40;53.60;;;;;;5014642;28;20080;-81
2021/03/01 10:46:46;;;;;;;10.65;6.95;;;11.60;53.40;;;;;;5014484;28;20404;-81
2021/03/01 10:49:15;;;;;;;10.15;7.80;;;11.60;53.20;;;;;;5014339;28;20474;-82
2021/03/01 10:51:41;;;;;;;9.30;6.93;;;11.70;53.10;;;;;;4996841;28;20076;-81
2021/03/01 10:54:07;;;;;;;10.18;6.85;;;11.70;53.00;;;;;;5012900;28;20421;-82
2021/03/01 11:00:45;;;;;;;12.13;7.15;;;11.70;52.50;;;;;;5012589;28;20399;-81
2021/03/01 11:03:10;;;;;;;8.05;5.90;;;11.70;52.50;;;;;;5011870;28;20045;-81
2021/03/01 11:05:36;;;;;;;10.68;6.07;;;11.70;52.60;;;;;;5013719;28;20080;-80
2021/03/01 11:08:02;;;;;;;8.05;6.45;;;11.60;52.30;;;;;;5013735;28;20036;-81
2021/03/01 11:10:27;;;;;;;7.45;5.82;;;11.50;52.00;;;;;;5003954;28;20443;-80
2021/03/01 11:12:53;;;;;;;7.93;5.45;;;11.40;52.00;;;;;;4994423;28;20069;-81
2021/03/01 11:15:19;;;;;;;7.70;5.70;;;11.30;52.00;;;;;;4994666;28;20088;-81
2021/03/01 11:17:44;;;;;;;10.68;6.47;;;11.20;52.20;;;;;;5013017;28;20377;-80
2021/03/01 11:20:10;;;;;;;9.27;6.45;;;11.20;52.40;;;;;;5012301;28;20427;-80
2021/03/01 11:22:36;;;;;;;12.82;6.57;;;11.20;52.60;;;;;;5011979;28;20076;-83
2021/03/01 11:25:02;;;;;;;10.80;6.35;;;11.20;52.60;;;;;;5012250;28;20463;-83
2021/03/01 11:27:28;;;;;;;13.05;7.68;;;11.30;52.60;;;;;;4994925;28;20132;-83
2021/03/01 11:29:53;;;;;;;9.77;7.78;;;11.40;52.50;;;;;;5012614;28;20026;-80
2021/03/01 11:32:19;;;;;;;10.00;7.60;;;11.60;52.30;;;;;;5012078;28;20156;-83
2021/03/01 11:34:45;;;;;;;9.55;7.03;;;11.80;52.10;;;;;;5012149;28;20029;-81
2021/03/01 11:37:10;;;;;;;6.75;5.72;;;11.90;51.70;;;;;;5012144;28;20076;-81
2021/03/01 11:39:36;;;;;;;7.65;5.55;;;12.10;51.50;;;;;;5012559;28;20157;-81
2021/03/01 11:42:02;;;;;;;8.63;6.07;;;12.20;51.20;;;;;;5012384;28;20053;-81
2021/03/01 11:44:28;;;;;;;11.20;8.07;;;12.30;50.80;;;;;;5012495;28;20075;-82
2021/03/01 11:46:53;;;;;;;13.75;8.02;;;12.40;50.60;;;;;;5013055;28;20395;-81
2021/03/01 11:49:19;;;;;;;14.45;9.13;;;12.50;50.40;;;;;;5013106;28;20566;-81
2021/03/01 11:51:45;;;;;;;12.55;8.00;;;12.60;50.10;;;;;;5013240;28;20433;-81
2021/03/01 11:54:10;;;;;;;15.70;10.35;;;12.70;49.70;;;;;;4995893;28;20072;-79
2021/03/01 11:56:36;;;;;;;16.58;10.60;;;12.70;49.50;;;;;;5013279;28;20030;-81
2021/03/01 11:59:04;;;;;;;21.73;13.07;;;12.70;49.30;;;;;;5013265;28;20479;-80
2021/03/01 12:01:30;;;;;;;19.45;10.77;;;12.60;49.80;;;;;;5012817;28;20034;-81
2021/03/01 12:03:56;;;;;;;13.48;8.98;;;12.60;49.20;;;;;;5013207;28;20396;-78
2021/03/01 12:06:22;;;;;;;10.07;6.28;;;12.50;49.20;;;;;;5013313;28;20101;-81
2021/03/01 12:08:47;;;;;;;7.60;5.90;;;12.50;49.10;;;;;;5013162;28;20114;-81
2021/03/01 12:11:13;;;;;;;9.85;5.72;;;12.50;49.10;;;;;;5015785;28;20041;-82
2021/03/01 12:13:39;;;;;;;7.28;5.28;;;12.60;49.10;;;;;;4995986;28;20022;-81
2021/03/01 12:16:05;;;;;;;9.02;6.53;;;12.60;48.80;;;;;;5013152;28;20121;-82
2021/03/01 12:18:31;;;;;;;6.60;5.00;;;12.40;48.50;;;;;;5013196;28;20062;-80
2021/03/01 12:20:56;;;;;;;8.75;5.88;;;12.20;48.50;;;;;;5013626;28;20113;-80
2021/03/01 12:23:22;;;;;;;7.35;5.43;;;11.90;48.60;;;;;;4995891;28;20116;-83
2021/03/01 12:25:48;;;;;;;7.20;4.88;;;11.70;48.80;;;;;;5013397;28;20380;-81
2021/03/01 12:28:13;;;;;;;8.20;5.05;;;11.40;49.10;;;;;;5013104;28;20029;-81
2021/03/01 12:30:39;;;;;;;7.55;4.70;;;11.20;49.50;;;;;;5012994;28;20040;-81
2021/03/01 12:33:06;;;;;;;7.72;5.20;;;11.00;49.80;;;;;;5013259;28;20480;-81
2021/03/01 12:35:32;;;;;;;8.35;6.00;;;10.80;50.10;;;;;;5016452;28;20033;-81
2021/03/01 12:37:59;;;;;;;7.60;5.40;;;10.60;50.50;;;;;;5015748;28;20030;-82
2021/03/01 12:40:25;;;;;;;8.98;5.28;;;10.50;50.90;;;;;;5016613;28;20056;-81
2021/03/01 12:42:52;;;;;;;9.70;5.90;;;10.40;51.20;;;;;;5012003;28;20042;-81
2021/03/01 12:45:18;;;;;;;9.57;5.90;;;10.20;51.40;;;;;;4993948;28;20030;-83
2021/03/01 12:47:44;;;;;;;8.70;5.63;;;10.10;51.60;;;;;;5017278;28;20030;-81
2021/03/01 12:50:10;;;;;;;10.43;6.03;;;10.00;51.80;;;;;;4998696;28;20042;-87
2021/03/01 12:52:36;;;;;;;13.27;6.95;;;9.90;52.10;;;;;;5014242;28;20546;-80
2021/03/01 12:55:02;;;;;;;10.30;6.22;;;10.60;54.30;;;;;;5016845;28;20062;-81
2021/03/01 12:57:27;;;;;;;8.82;6.13;;;12.20;54.70;;;;;;4995054;28;20101;-81